createdAt,value
2022-09-12T00:01:27.561Z,101202.97
2022-09-12T00:03:54.456Z,101172.41
2022-09-12T00:06:24.480Z,101188.69
2022-09-12T00:08:51.238Z,101201.84
2022-09-12T00:11:17.508Z,101202.28
2022-09-12T00:13:43.715Z,101197.75
2022-09-12T00:16:19.775Z,101189.25
2022-09-12T00:18:46.104Z,101165.66
2022-09-12T00:21:12.718Z,101162.56
2022-09-12T00:23:38.917Z,101197.84
2022-09-12T00:26:05.427Z,101206.97
2022-09-12T00:28:31.908Z,101193.31
2022-09-12T00:30:58.093Z,101176.94
2022-09-12T00:33:24.302Z,101161.72
2022-09-12T00:35:51.238Z,101145.75
2022-09-12T00:38:17.446Z,101168.13
2022-09-12T00:40:43.747Z,101161.69
2022-09-12T00:43:33.249Z,101198.44
2022-09-12T00:46:00.444Z,101208.34
2022-09-12T00:48:28.787Z,101191.91
2022-09-12T00:50:54.985Z,101167.84
2022-09-12T00:53:21.184Z,101161.94
2022-09-12T00:55:47.397Z,101149.06
2022-09-12T00:58:14.835Z,101138.81
2022-09-12T01:00:41.038Z,101110.97
2022-09-12T01:03:08.164Z,101103.47
2022-09-12T01:05:34.796Z,101097.84
2022-09-12T01:08:01.132Z,101095.69
2022-09-12T01:10:27.333Z,101102.69
2022-09-12T01:12:53.526Z,101115.59
2022-09-12T01:15:19.728Z,101112.97
2022-09-12T01:18:09.168Z,101117.25
2022-09-12T01:20:37.800Z,101101.03
2022-09-12T01:23:22.800Z,101111.75
2022-09-12T01:26:00.896Z,101141.97
2022-09-12T01:28:30.935Z,101147.56
2022-09-12T01:30:57.077Z,101129.66
2022-09-12T01:33:41.834Z,101128.69
2022-09-12T01:36:11.697Z,101164.78
2022-09-12T01:38:38.569Z,101181.50
2022-09-12T01:41:04.704Z,101162.75
2022-09-12T01:43:49.336Z,101193.28
2022-09-12T01:46:19.380Z,101209.97
2022-09-12T01:48:47.568Z,101204.16
2022-09-12T01:51:18.589Z,101200.16
2022-09-12T01:53:45.518Z,101175.44
2022-09-12T01:56:19.023Z,101162.13
2022-09-12T01:58:45.950Z,101149.81
2022-09-12T02:01:13.546Z,101140.81
2022-09-12T02:03:41.394Z,101136.13
2022-09-12T02:06:08.531Z,101154.06
2022-09-12T02:08:36.730Z,101157.91
2022-09-12T02:11:05.911Z,101137.22
2022-09-12T02:13:33.241Z,101127.31
2022-09-12T02:16:01.562Z,101120.06
2022-09-12T02:18:27.780Z,101113.25
2022-09-12T02:20:53.989Z,101105.16
2022-09-12T02:23:21.002Z,101108.56
2022-09-12T02:25:47.368Z,101109.91
2022-09-12T02:28:14.199Z,101108.63
2022-09-12T02:30:45.544Z,101104.91
2022-09-12T02:33:20.420Z,101107.78
2022-09-12T02:35:47.574Z,101110.72
2022-09-12T02:38:25.960Z,101129.97
2022-09-12T02:40:52.210Z,101143.00
2022-09-12T02:43:18.405Z,101172.72
2022-09-12T02:45:44.654Z,101198.88
2022-09-12T02:48:24.308Z,101204.19
2022-09-12T02:50:50.505Z,101210.78
2022-09-12T02:53:16.697Z,101211.88
2022-09-12T02:55:42.896Z,101196.19
2022-09-12T02:58:10.982Z,101192.63
2022-09-12T03:00:38.033Z,101174.09
2022-09-12T03:03:43.349Z,101167.81
2022-09-12T03:06:48.343Z,101149.97
2022-09-12T03:09:25.135Z,101135.53
2022-09-12T03:11:51.280Z,101137.19
2022-09-12T03:14:26.287Z,101129.44
2022-09-12T03:17:05.061Z,101113.31
2022-09-12T03:19:51.146Z,101102.84
2022-09-12T03:22:20.434Z,101101.00
2022-09-12T03:24:51.952Z,101092.03
2022-09-12T03:27:22.657Z,101088.53
2022-09-12T03:29:48.852Z,101090.84
2022-09-12T03:32:15.041Z,101091.78
2022-09-12T03:34:41.235Z,101078.53
2022-09-12T03:37:07.430Z,101078.50
2022-09-12T03:39:33.637Z,101068.50
2022-09-12T03:41:59.833Z,101105.75
2022-09-12T03:44:26.043Z,101150.59
2022-09-12T03:46:52.240Z,101158.59
2022-09-12T03:49:18.445Z,101144.66
2022-09-12T03:51:44.637Z,101153.59
2022-09-12T03:54:10.930Z,101162.47
2022-09-12T03:56:37.125Z,101156.22
2022-09-12T03:59:06.349Z,101127.66
2022-09-12T04:01:32.586Z,101167.84
2022-09-12T04:03:58.813Z,101191.44
2022-09-12T04:06:25.001Z,101165.91
2022-09-12T04:08:51.901Z,101185.66
2022-09-12T04:11:18.315Z,101191.81
2022-09-12T04:13:44.616Z,101189.38
2022-09-12T04:16:11.138Z,101166.25
2022-09-12T04:18:37.372Z,101136.03
2022-09-12T04:21:04.416Z,101136.97
2022-09-12T04:23:30.619Z,101170.78
2022-09-12T04:25:57.155Z,101175.56
2022-09-12T04:28:23.371Z,101174.19
2022-09-12T04:30:49.871Z,101151.78
2022-09-12T04:33:16.086Z,101137.50
2022-09-12T04:35:42.286Z,101118.09
2022-09-12T04:38:08.669Z,101125.03
2022-09-12T04:40:35.049Z,101118.09
2022-09-12T04:43:01.241Z,101098.91
2022-09-12T04:45:27.436Z,101096.94
2022-09-12T04:47:53.638Z,101094.09
2022-09-12T04:50:19.864Z,101084.88
2022-09-12T04:52:52.453Z,101092.19
2022-09-12T04:55:18.666Z,101090.59
2022-09-12T04:57:44.903Z,101103.50
2022-09-12T05:00:11.393Z,101145.25
2022-09-12T05:02:37.628Z,101160.22
2022-09-12T05:05:03.910Z,101177.69
2022-09-12T05:07:30.110Z,101199.97
2022-09-12T05:09:56.316Z,101214.38
2022-09-12T05:12:22.500Z,101205.84
2022-09-12T05:14:48.697Z,101170.66
2022-09-12T05:17:14.899Z,101152.09
2022-09-12T05:19:41.104Z,101142.78
2022-09-12T05:22:07.309Z,101117.63
2022-09-12T05:24:33.512Z,101055.19
2022-09-12T05:26:59.706Z,100973.19
2022-09-12T05:29:25.907Z,100930.34
2022-09-12T05:31:52.170Z,100936.88
2022-09-12T05:34:18.798Z,100996.91
2022-09-12T05:36:45.017Z,101023.88
2022-09-12T05:39:11.221Z,101059.03
2022-09-12T05:41:37.533Z,101068.28
2022-09-12T05:44:04.517Z,101076.06
2022-09-12T05:46:31.745Z,101076.97
2022-09-12T05:49:01.908Z,101087.72
2022-09-12T05:51:28.329Z,101104.59
2022-09-12T05:53:55.499Z,101134.34
2022-09-12T05:56:22.362Z,101178.25
2022-09-12T05:58:50.894Z,101216.66
2022-09-12T06:01:17.462Z,101227.50
2022-09-12T06:03:50.553Z,101233.22
2022-09-12T06:06:17.395Z,101234.88
2022-09-12T06:08:44.133Z,101240.16
2022-09-12T06:11:11.428Z,101267.78
2022-09-12T06:13:37.732Z,101278.69
2022-09-12T06:16:07.837Z,101247.69
2022-09-12T06:18:34.520Z,101222.66
2022-09-12T06:21:10.658Z,101177.81
2022-09-12T06:23:36.961Z,101202.00
2022-09-12T06:26:03.257Z,101222.13
2022-09-12T06:28:29.571Z,101230.28
2022-09-12T06:31:01.115Z,101257.97
2022-09-12T06:33:27.364Z,101290.72
2022-09-12T06:35:53.579Z,101321.06
2022-09-12T06:38:19.778Z,101320.84
2022-09-12T06:40:45.981Z,101316.19
2022-09-12T06:43:12.332Z,101306.19
2022-09-12T06:45:38.559Z,101293.34
2022-09-12T06:48:04.789Z,101254.69
2022-09-12T06:50:30.997Z,101209.91
2022-09-12T06:52:57.203Z,101141.22
2022-09-12T06:55:27.167Z,101091.06
2022-09-12T06:57:54.176Z,101127.00
2022-09-12T07:00:20.402Z,101056.63
2022-09-12T07:02:46.596Z,101054.88
2022-09-12T07:05:12.806Z,101021.47
2022-09-12T07:07:38.997Z,101039.78
2022-09-12T07:10:05.401Z,100961.13
2022-09-12T07:12:31.588Z,100949.97
2022-09-12T07:14:57.792Z,100935.16
2022-09-12T07:17:23.981Z,100973.53
2022-09-12T07:19:50.177Z,100983.22
2022-09-12T07:22:16.370Z,101040.88
2022-09-12T07:24:42.580Z,101039.78
2022-09-12T07:27:08.782Z,100995.66
2022-09-12T07:29:37.701Z,100925.94
2022-09-12T07:32:04.377Z,100874.47
2022-09-12T07:34:30.578Z,100915.22
2022-09-12T07:36:56.768Z,100946.34
2022-09-12T07:39:22.968Z,100957.03
2022-09-12T07:41:49.162Z,100943.88
2022-09-12T07:44:15.363Z,100994.63
2022-09-12T07:46:41.569Z,101122.31
2022-09-12T07:49:08.539Z,101208.69
2022-09-12T07:51:34.856Z,101267.91
2022-09-12T07:54:01.071Z,101310.06
2022-09-12T07:56:30.223Z,101326.53
2022-09-12T07:58:58.198Z,101244.09
2022-09-12T08:01:24.469Z,101140.16
2022-09-12T08:03:53.259Z,101071.78
2022-09-12T08:06:20.029Z,101116.47
2022-09-12T08:08:46.376Z,101021.28
2022-09-12T08:11:13.068Z,100972.91
2022-09-12T08:13:39.624Z,100971.81
2022-09-12T08:16:06.902Z,100924.00
2022-09-12T08:18:33.161Z,100833.25
2022-09-12T08:21:03.543Z,100810.13
2022-09-12T08:23:29.907Z,100798.25
2022-09-12T08:26:03.091Z,100968.75
2022-09-12T08:28:31.926Z,101056.66
2022-09-12T08:31:01.602Z,101175.72
2022-09-12T08:33:28.259Z,101169.25
2022-09-12T08:35:54.464Z,101082.88
2022-09-12T08:38:20.670Z,101049.50
2022-09-12T08:40:50.280Z,100931.03
2022-09-12T08:43:23.906Z,100835.06
2022-09-12T08:46:02.035Z,100851.59
2022-09-12T08:48:28.284Z,100900.69
2022-09-12T08:50:54.481Z,101038.50
2022-09-12T08:53:21.333Z,101070.06
2022-09-12T08:55:52.660Z,101111.00
2022-09-12T08:58:19.433Z,101110.41
2022-09-12T09:00:50.668Z,101141.78
2022-09-12T09:03:19.927Z,101138.16
2022-09-12T09:05:49.941Z,101098.97
2022-09-12T09:08:16.086Z,101044.69
2022-09-12T09:10:46.892Z,100858.13
2022-09-12T09:13:13.044Z,100807.63
2022-09-12T09:15:40.869Z,100690.13
2022-09-12T09:18:11.760Z,100447.72
2022-09-12T09:20:42.939Z,100567.34
2022-09-12T09:23:09.089Z,100672.22
2022-09-12T09:25:38.098Z,100614.44
2022-09-12T09:28:04.835Z,100300.84
2022-09-12T09:30:31.041Z,100567.00
2022-09-12T09:32:58.421Z,100504.91
2022-09-12T09:35:36.981Z,100599.94
2022-09-12T09:38:07.175Z,100409.25
2022-09-12T09:40:36.778Z,100446.97
2022-09-12T09:43:02.935Z,100460.78
2022-09-12T09:45:29.145Z,100616.81
2022-09-12T09:47:55.304Z,100556.09
2022-09-12T09:50:21.528Z,100341.50
2022-09-12T09:52:47.767Z,100399.63
2022-09-12T09:55:15.384Z,100551.50
2022-09-12T09:57:41.825Z,100576.03
2022-09-12T10:00:24.186Z,100698.91
2022-09-12T10:03:02.573Z,100386.50
2022-09-12T10:05:28.943Z,100515.16
2022-09-12T10:07:55.150Z,100661.59
2022-09-12T10:10:21.403Z,100682.16
2022-09-12T10:12:47.606Z,100594.97
2022-09-12T10:15:20.692Z,100757.69
2022-09-12T10:17:47.558Z,100771.47
2022-09-12T10:20:29.118Z,100796.50
2022-09-12T10:22:55.327Z,100608.66
2022-09-12T10:25:21.585Z,100515.78
2022-09-12T10:27:52.302Z,100567.78
2022-09-12T10:30:19.077Z,100535.06
2022-09-12T10:32:46.098Z,100541.34
2022-09-12T10:35:21.761Z,100552.53
2022-09-12T10:37:52.326Z,100629.59
2022-09-12T10:40:25.825Z,100570.56
2022-09-12T10:42:55.564Z,100528.59
2022-09-12T10:45:25.944Z,100470.06
2022-09-12T10:47:52.582Z,100549.81
2022-09-12T10:50:23.267Z,100379.59
2022-09-12T10:52:49.605Z,100532.53
2022-09-12T10:55:15.814Z,100593.69
2022-09-12T10:57:46.454Z,100744.69
2022-09-12T11:00:13.177Z,100645.56
2022-09-12T11:02:43.993Z,100556.88
2022-09-12T11:05:22.951Z,100460.00
2022-09-12T11:07:56.893Z,100493.50
2022-09-12T11:10:38.053Z,100458.91
2022-09-12T11:13:17.318Z,100307.09
2022-09-12T11:16:01.671Z,100510.63
2022-09-12T11:18:40.942Z,100452.19
2022-09-12T11:21:26.143Z,100670.34
2022-09-12T11:23:52.305Z,100489.22
2022-09-12T11:26:37.222Z,100589.84
2022-09-12T11:29:07.257Z,100538.41
2022-09-12T11:31:52.424Z,100535.06
2022-09-12T11:34:47.734Z,100710.91
2022-09-12T11:37:19.614Z,100700.88
2022-09-12T11:39:46.023Z,100471.50
2022-09-12T11:42:15.042Z,100324.63
2022-09-12T11:44:45.742Z,100415.84
2022-09-12T11:47:12.375Z,100668.81
2022-09-12T11:49:40.093Z,100584.41
2022-09-12T11:52:15.321Z,100599.19
2022-09-12T11:54:42.494Z,100405.88
2022-09-12T11:57:11.806Z,100332.59
2022-09-12T12:00:04.314Z,99956.41
2022-09-12T12:02:31.418Z,100289.25
2022-09-12T12:05:00.507Z,100266.25
2022-09-12T12:07:26.693Z,100497.31
2022-09-12T12:09:52.902Z,100420.19
2022-09-12T12:12:20.964Z,100550.44
2022-09-12T12:14:47.737Z,100442.09
2022-09-12T12:17:14.830Z,100368.59
2022-09-12T12:19:41.020Z,100617.41
2022-09-12T12:22:20.479Z,100794.56
2022-09-12T12:24:53.797Z,100895.88
2022-09-12T12:27:43.368Z,100861.53
2022-09-12T12:30:27.995Z,100734.50
2022-09-12T12:32:59.072Z,100814.72
2022-09-12T12:35:44.249Z,100890.72
2022-09-12T12:38:33.681Z,100977.50
2022-09-12T12:41:25.613Z,100964.91
2022-09-12T12:43:52.195Z,100787.91
2022-09-12T12:46:18.867Z,100850.38
2022-09-12T12:48:51.209Z,100734.69
2022-09-12T12:51:22.297Z,100682.69
2022-09-12T12:53:48.484Z,100651.78
2022-09-12T12:56:33.694Z,100537.97
2022-09-12T12:59:00.699Z,100241.75
2022-09-12T13:01:26.927Z,100456.72
2022-09-12T13:03:53.095Z,100686.56
2022-09-12T13:06:41.175Z,100601.06
2022-09-12T13:09:23.183Z,100691.28
2022-09-12T13:11:55.726Z,100741.19
2022-09-12T13:14:42.177Z,100606.66
2022-09-12T13:17:08.379Z,100693.00
2022-09-12T13:19:36.310Z,100452.59
2022-09-12T13:22:03.887Z,100609.94
2022-09-12T13:24:30.092Z,100563.44
2022-09-12T13:26:56.370Z,100613.69
2022-09-12T13:29:22.914Z,100814.06
2022-09-12T13:31:49.553Z,100778.78
2022-09-12T13:34:17.998Z,100669.84
2022-09-12T13:36:52.927Z,100794.72
2022-09-12T13:39:25.410Z,100912.97
2022-09-12T13:42:03.901Z,100580.16
2022-09-12T13:44:30.121Z,100634.44
2022-09-12T13:46:58.461Z,100740.09
2022-09-12T13:49:34.493Z,100777.69
2022-09-12T13:52:03.926Z,100707.59
2022-09-12T13:54:30.168Z,100730.84
2022-09-12T13:56:56.370Z,100649.88
2022-09-12T13:59:22.577Z,100484.97
2022-09-12T14:01:48.914Z,100381.56
2022-09-12T14:04:16.100Z,100683.72
2022-09-12T14:06:46.290Z,100569.66
2022-09-12T14:09:13.289Z,100567.94
2022-09-12T14:11:39.477Z,100763.53
2022-09-12T14:14:06.475Z,100790.16
2022-09-12T14:16:33.234Z,100789.88
2022-09-12T14:18:59.584Z,100906.31
2022-09-12T14:21:28.806Z,100825.25
2022-09-12T14:23:55.155Z,101031.88
2022-09-12T14:26:21.481Z,100928.16
2022-09-12T14:28:47.758Z,100895.00
2022-09-12T14:31:14.071Z,100768.25
2022-09-12T14:33:46.792Z,100582.59
2022-09-12T14:36:32.232Z,100649.53
2022-09-12T14:38:59.440Z,100975.78
2022-09-12T14:41:36.068Z,100950.44
2022-09-12T14:44:03.161Z,100888.09
2022-09-12T14:46:29.366Z,100907.09
2022-09-12T14:48:59.993Z,101058.28
2022-09-12T14:51:32.633Z,101076.38
2022-09-12T14:56:38.699Z,100790.31
2022-09-12T14:59:23.584Z,100392.44
2022-09-12T15:01:49.830Z,100625.09
2022-09-12T15:04:36.194Z,100628.38
2022-09-12T15:07:13.353Z,100658.50
2022-09-12T15:09:44.042Z,100569.66
2022-09-12T15:12:12.713Z,100595.91
2022-09-12T15:14:38.923Z,100432.25
2022-09-12T15:17:05.112Z,100356.28
2022-09-12T15:19:31.302Z,100499.34
2022-09-12T15:21:57.578Z,100498.25
2022-09-12T15:24:23.778Z,100625.03
2022-09-12T15:26:50.005Z,100740.53
2022-09-12T15:29:16.203Z,100737.06
2022-09-12T15:31:42.411Z,100714.41
2022-09-12T15:34:08.605Z,100621.81
2022-09-12T15:36:34.800Z,100935.31
2022-09-12T15:39:00.984Z,100944.38
2022-09-12T15:41:33.937Z,100852.41
2022-09-12T15:44:00.129Z,100862.00
2022-09-12T15:46:26.394Z,100898.50
2022-09-12T15:48:52.652Z,100919.66
2022-09-12T15:51:19.710Z,100997.91
2022-09-12T15:53:46.054Z,101021.56
2022-09-12T15:56:12.290Z,101025.69
2022-09-12T15:58:49.720Z,100903.00
2022-09-12T16:01:23.752Z,100923.81
2022-09-12T16:03:49.982Z,100934.28
2022-09-12T16:06:16.199Z,100945.28
2022-09-12T16:08:42.480Z,100909.38
2022-09-12T16:11:16.767Z,100836.50
2022-09-12T16:13:42.967Z,100778.50
2022-09-12T16:16:09.234Z,100892.41
2022-09-12T16:18:35.514Z,100994.78
2022-09-12T16:21:01.726Z,101067.38
2022-09-12T16:23:27.922Z,101084.31
2022-09-12T16:25:57.738Z,101046.25
2022-09-12T16:28:24.087Z,101049.84
2022-09-12T16:31:00.015Z,101053.47
2022-09-12T16:33:26.425Z,101048.69
2022-09-12T16:35:52.721Z,101053.00
2022-09-12T16:38:18.934Z,101098.34
2022-09-12T16:40:45.128Z,101105.50
2022-09-12T16:43:11.347Z,101143.19
2022-09-12T16:45:37.570Z,101143.53
2022-09-12T16:48:03.802Z,101142.03
2022-09-12T16:50:29.998Z,101133.50
2022-09-12T16:52:56.192Z,101095.16
2022-09-12T16:55:22.483Z,101079.09
2022-09-12T16:57:48.706Z,101075.78
2022-09-12T17:00:14.936Z,101074.91
2022-09-12T17:02:41.190Z,101085.53
2022-09-12T17:05:07.628Z,101085.63
2022-09-12T17:07:33.830Z,101078.28
2022-09-12T17:10:00.028Z,101066.06
2022-09-12T17:12:26.254Z,101039.06
2022-09-12T17:14:52.466Z,101010.25
2022-09-12T17:17:18.669Z,101010.75
2022-09-12T17:19:44.860Z,100983.66
2022-09-12T17:22:11.052Z,100959.41
2022-09-12T17:24:37.446Z,100947.28
2022-09-12T17:27:03.699Z,100937.00
2022-09-12T17:29:29.893Z,100940.06
2022-09-12T17:31:56.081Z,100946.91
2022-09-12T17:34:22.272Z,100941.22
2022-09-12T17:36:48.502Z,100938.34
2022-09-12T17:39:14.711Z,100934.69
2022-09-12T17:41:40.984Z,100937.41
2022-09-12T17:44:07.172Z,100925.22
2022-09-12T17:46:34.375Z,100939.72
2022-09-12T17:49:00.630Z,100941.56
2022-09-12T17:51:27.444Z,100938.91
2022-09-12T17:54:00.610Z,100924.69
2022-09-12T17:56:27.282Z,100911.19
2022-09-12T17:58:54.016Z,100903.56
2022-09-12T18:01:20.280Z,100906.75
2022-09-12T18:03:46.539Z,100909.16
2022-09-12T18:06:12.740Z,100896.25
2022-09-12T18:08:38.953Z,100878.53
2022-09-12T18:11:05.289Z,100879.31
2022-09-12T18:13:32.116Z,100875.69
2022-09-12T18:16:05.508Z,100856.75
2022-09-12T18:18:31.803Z,100856.78
2022-09-12T18:20:58.010Z,100855.69
2022-09-12T18:23:24.240Z,100843.59
2022-09-12T18:25:56.141Z,100834.44
2022-09-12T18:28:22.344Z,100843.16
2022-09-12T18:30:48.589Z,100834.22
2022-09-12T18:33:14.806Z,100839.47
2022-09-12T18:35:40.994Z,100815.22
2022-09-12T18:38:07.193Z,100807.03
2022-09-12T18:40:33.381Z,100800.84
2022-09-12T18:42:59.602Z,100792.41
2022-09-12T18:45:25.954Z,100769.72
2022-09-12T18:47:52.152Z,100765.81
2022-09-12T18:50:18.343Z,100778.94
2022-09-12T18:52:44.557Z,100741.72
2022-09-12T18:55:10.749Z,100733.63
2022-09-12T18:57:36.958Z,100771.94
2022-09-12T19:00:03.702Z,100784.63
2022-09-12T19:02:29.910Z,100787.56
2022-09-12T19:04:57.800Z,100789.41
2022-09-12T19:07:23.997Z,100797.31
2022-09-12T19:09:50.194Z,100790.47
2022-09-12T19:12:16.396Z,100780.25
2022-09-12T19:14:42.602Z,100788.34
2022-09-12T19:17:08.804Z,100782.09
2022-09-12T19:19:37.663Z,100784.69
2022-09-12T19:22:06.645Z,100765.63
2022-09-12T19:24:32.841Z,100764.56
2022-09-12T19:26:59.053Z,100742.34
2022-09-12T19:29:25.260Z,100734.44
2022-09-12T19:31:51.994Z,100732.94
2022-09-12T19:34:18.198Z,100728.25
2022-09-12T19:36:46.382Z,100737.25
2022-09-12T19:39:13.089Z,100760.47
2022-09-12T19:41:39.289Z,100777.66
2022-09-12T19:44:05.502Z,100771.59
2022-09-12T19:46:31.781Z,100765.75
2022-09-12T19:48:58.044Z,100759.13
2022-09-12T19:51:24.232Z,100748.06
2022-09-12T19:53:50.438Z,100730.09
2022-09-12T19:56:16.625Z,100719.00
2022-09-12T19:58:43.460Z,100716.75
2022-09-12T20:01:19.278Z,100725.22
2022-09-12T20:03:45.580Z,100737.91
2022-09-12T20:06:12.469Z,100741.81
2022-09-12T20:08:38.810Z,100747.66
2022-09-12T20:11:05.054Z,100742.41
2022-09-12T20:13:31.261Z,100744.00
2022-09-12T20:16:04.831Z,100733.69
2022-09-12T20:18:31.065Z,100737.72
2022-09-12T20:20:57.257Z,100762.28
2022-09-12T20:23:23.503Z,100775.00
2022-09-12T20:25:49.702Z,100763.88
2022-09-12T20:28:15.919Z,100761.81
2022-09-12T20:30:42.119Z,100771.31
2022-09-12T20:33:08.323Z,100771.88
2022-09-12T20:35:34.511Z,100772.41
2022-09-12T20:38:00.719Z,100753.63
2022-09-12T20:40:26.944Z,100749.72
2022-09-12T20:42:53.158Z,100746.38
2022-09-12T20:45:19.347Z,100756.66
2022-09-12T20:47:45.556Z,100759.59
2022-09-12T20:50:11.758Z,100740.34
2022-09-12T20:52:37.956Z,100730.03
2022-09-12T20:55:04.258Z,100710.53
2022-09-12T20:57:30.463Z,100694.72
2022-09-12T20:59:56.667Z,100692.13
2022-09-12T21:02:23.002Z,100711.44
2022-09-12T21:04:49.266Z,100715.13
2022-09-12T21:07:15.471Z,100713.00
2022-09-12T21:09:41.666Z,100713.41
2022-09-12T21:12:07.873Z,100684.97
2022-09-12T21:14:34.072Z,100660.22
2022-09-12T21:17:00.272Z,100674.94
2022-09-12T21:19:26.472Z,100665.72
2022-09-12T21:21:52.683Z,100656.81
2022-09-12T21:24:18.884Z,100663.72
2022-09-12T21:26:45.077Z,100680.66
2022-09-12T21:29:11.291Z,100672.19
2022-09-12T21:31:37.537Z,100662.94
2022-09-12T21:34:03.758Z,100647.31
2022-09-12T21:36:29.962Z,100648.38
2022-09-12T21:38:58.903Z,100634.22
2022-09-12T21:41:25.097Z,100636.84
2022-09-12T21:43:51.300Z,100628.88
2022-09-12T21:46:17.533Z,100614.91
2022-09-12T21:48:43.769Z,100608.56
2022-09-12T21:51:09.959Z,100604.66
2022-09-12T21:53:36.223Z,100595.47
2022-09-12T21:56:03.317Z,100604.75
2022-09-12T21:58:29.523Z,100627.22
2022-09-12T22:00:55.748Z,100632.25
2022-09-12T22:03:21.964Z,100642.50
2022-09-12T22:05:51.814Z,100623.78
2022-09-12T22:08:18.019Z,100631.19
2022-09-12T22:10:44.212Z,100619.59
2022-09-12T22:13:10.422Z,100606.13
2022-09-12T22:15:40.597Z,100598.19
2022-09-12T22:18:07.216Z,100591.31
2022-09-12T22:20:33.415Z,100592.53
2022-09-12T22:22:59.633Z,100600.63
2022-09-12T22:25:25.826Z,100594.09
2022-09-12T22:27:52.159Z,100584.91
2022-09-12T22:30:18.480Z,100574.91
2022-09-12T22:32:44.697Z,100571.06
2022-09-12T22:35:10.876Z,100572.94
2022-09-12T22:37:37.065Z,100579.31
2022-09-12T22:40:03.402Z,100584.81
2022-09-12T22:42:29.654Z,100577.34
2022-09-12T22:44:55.841Z,100552.50
2022-09-12T22:47:22.043Z,100542.75
2022-09-12T22:49:48.252Z,100526.16
2022-09-12T22:52:14.843Z,100520.19
2022-09-12T22:54:41.265Z,100516.19
2022-09-12T22:57:07.467Z,100507.56
2022-09-12T22:59:33.670Z,100506.78
2022-09-12T23:01:59.856Z,100515.66
2022-09-12T23:04:26.106Z,100526.00
2022-09-12T23:06:52.294Z,100536.84
2022-09-12T23:09:18.494Z,100550.28
2022-09-12T23:11:44.694Z,100565.78
2022-09-12T23:14:10.907Z,100560.47
2022-09-12T23:16:37.158Z,100543.31
2022-09-12T23:19:03.384Z,100535.47
2022-09-12T23:21:29.568Z,100534.94
2022-09-12T23:23:55.773Z,100528.06
2022-09-12T23:26:25.397Z,100520.19
2022-09-12T23:28:52.265Z,100501.75
2022-09-12T23:31:18.622Z,100509.13
2022-09-12T23:33:44.880Z,100502.88
2022-09-12T23:36:11.171Z,100507.63
2022-09-12T23:38:37.443Z,100498.47
2022-09-12T23:41:03.700Z,100512.16
2022-09-12T23:43:29.898Z,100515.06
2022-09-12T23:45:56.321Z,100509.78
2022-09-12T23:48:22.557Z,100510.28
2022-09-12T23:50:48.928Z,100502.97
2022-09-12T23:53:15.500Z,100497.97
2022-09-12T23:55:41.749Z,100499.53
2022-09-12T23:58:07.941Z,100504.00
